Time;durP1;ratioP1;P1;durP2;ratioP2;P2;SDS_P1;SDS_P2;PMS_P1;PMS_P2;Temp;Humidity;BMP_temperature;BMP_pressure;BME280_temperature;BME280_humidity;BME280_pressure;Samples;Min_cycle;Max_cycle;Signal;HPM_P1;HPM_P2
2021/07/01 00:00:45;;;;;;;41.63;19.58;;;;;;;-145.50;100.00;65435.88;4890311;29;21092;-48
2021/07/01 00:03:12;;;;;;;59.08;21.55;;;;;;;-145.50;100.00;65435.88;4890461;29;20056;-48
2021/07/01 00:05:40;;;;;;;43.10;19.52;;;;;;;-145.50;100.00;65435.88;4878002;29;20140;-49
2021/07/01 00:08:06;;;;;;;46.47;19.92;;;;;;;-145.50;100.00;65435.88;4888694;29;20095;-49
2021/07/01 00:10:32;;;;;;;45.40;18.85;;;;;;;-145.50;100.00;65435.88;4882376;29;20139;-50
2021/07/01 00:12:59;;;;;;;55.28;20.70;;;;;;;-145.50;100.00;65435.88;4888068;29;20080;-48
2021/07/01 00:15:28;;;;;;;48.33;19.55;;;;;;;-145.50;100.00;65435.88;4880143;29;20631;-47
2021/07/01 00:17:55;;;;;;;46.20;19.83;;;;;;;-145.50;100.00;65435.88;4885584;29;20084;-48
2021/07/01 00:20:22;;;;;;;52.72;21.55;;;;;;;-145.50;100.00;65435.88;4896840;29;20171;-47
2021/07/01 00:22:50;;;;;;;45.75;19.38;;;;;;;-145.50;100.00;65435.88;4881343;29;20083;-48
2021/07/01 00:25:18;;;;;;;46.63;19.23;;;;;;;-145.50;100.00;65435.88;4888582;29;20095;-48
2021/07/01 00:27:45;;;;;;;46.22;18.60;;;;;;;-145.50;100.00;65435.88;4882824;29;20139;-48
2021/07/01 00:30:14;;;;;;;50.30;20.10;;;;;;;-145.50;100.00;65435.88;4882160;29;20151;-49
2021/07/01 00:32:41;;;;;;;49.97;21.45;;;;;;;-145.50;100.00;65435.88;4880754;29;20060;-50
2021/07/01 00:35:08;;;;;;;42.17;19.60;;;;;;;-145.50;100.00;65435.88;4884352;29;20092;-49
2021/07/01 00:37:36;;;;;;;55.53;20.67;;;;;;;-145.50;100.00;65435.88;4883973;29;21242;-49
2021/07/01 00:40:05;;;;;;;50.83;19.45;;;;;;;-145.50;100.00;65435.88;4888999;29;20583;-49
2021/07/01 00:42:32;;;;;;;47.20;19.50;;;;;;;-145.50;100.00;65435.88;4888676;29;20144;-49
2021/07/01 00:44:58;;;;;;;48.10;19.13;;;;;;;-145.50;100.00;65435.88;4882519;29;20139;-50
2021/07/01 00:47:25;;;;;;;49.55;19.50;;;;;;;-145.50;100.00;65435.88;4892859;29;20164;-48
2021/07/01 00:49:53;;;;;;;40.67;19.58;;;;;;;-145.50;100.00;65435.88;4882739;29;20683;-48
2021/07/01 00:52:21;;;;;;;47.58;18.85;;;;;;;-145.50;100.00;65435.88;4891115;29;20063;-49
2021/07/01 00:54:47;;;;;;;50.15;19.92;;;;;;;-145.50;100.00;65435.88;4874716;29;20155;-50
2021/07/01 00:57:14;;;;;;;53.67;21.45;;;;;;;-145.50;100.00;65435.88;4890355;29;20091;-48
2021/07/01 00:59:41;;;;;;;49.13;18.38;;;;;;;-145.50;100.00;65435.88;4879791;29;20132;-48
2021/07/01 01:02:07;;;;;;;49.53;18.80;;;;;;;-145.50;100.00;65435.88;4885851;29;20156;-47
2021/07/01 01:04:34;;;;;;;38.92;17.75;;;;;;;-145.50;100.00;65435.88;4896055;29;20116;-48
2021/07/01 01:07:02;;;;;;;54.97;19.25;;;;;;;-145.50;100.00;65435.88;4873196;29;20100;-48
2021/07/01 01:09:29;;;;;;;46.88;18.92;;;;;;;-145.50;100.00;65435.88;4888053;29;20172;-49
2021/07/01 01:11:55;;;;;;;53.63;19.73;;;;;;;-145.50;100.00;65435.88;4890164;29;20091;-49
2021/07/01 01:14:22;;;;;;;58.17;20.75;;;;;;;-145.50;100.00;65435.88;4876753;29;20139;-49
2021/07/01 01:16:48;;;;;;;49.60;18.95;;;;;;;-145.50;100.00;65435.88;4877588;29;20140;-49
2021/07/01 01:19:15;;;;;;;47.80;21.08;;;;;;;-145.50;100.00;65435.88;4880257;29;20072;-48
2021/07/01 01:21:47;;;;;;;52.45;20.10;;;;;;;-145.50;100.00;65435.88;4871610;29;20138;-49
2021/07/01 01:24:14;;;;;;;54.10;20.05;;;;;;;-145.50;100.00;65435.88;4890933;29;20163;-48
2021/07/01 01:26:41;;;;;;;51.80;19.92;;;;;;;-145.50;100.00;65435.88;4884551;29;20116;-49
2021/07/01 01:29:08;;;;;;;60.63;19.65;;;;;;;-145.50;100.00;65435.88;4892600;29;20135;-48
2021/07/01 01:31:37;;;;;;;44.05;18.50;;;;;;;-145.50;100.00;65435.88;4875523;29;20488;-48
2021/07/01 01:34:05;;;;;;;50.03;18.60;;;;;;;-145.50;100.00;65435.88;4877105;29;20107;-48
2021/07/01 01:36:31;;;;;;;50.15;17.55;;;;;;;-145.50;100.00;65435.88;4885241;29;20838;-49
2021/07/01 01:38:58;;;;;;;44.30;18.90;;;;;;;-145.50;100.00;65435.88;4893147;29;20151;-49
2021/07/01 01:41:26;;;;;;;45.67;17.63;;;;;;;-145.50;100.00;65435.88;4892982;29;20088;-48
2021/07/01 01:43:53;;;;;;;51.28;18.10;;;;;;;-145.50;100.00;65435.88;4892240;29;20884;-48
2021/07/01 01:46:19;;;;;;;58.78;16.85;;;;;;;-145.50;100.00;65435.88;4886054;29;20148;-49
2021/07/01 01:48:53;;;;;;;44.03;14.23;;;;;;;-145.50;100.00;65435.88;4884893;29;20091;-49
2021/07/01 01:51:20;;;;;;;56.03;15.35;;;;;;;-145.50;100.00;65435.88;4881465;29;20163;-48
2021/07/01 01:53:48;;;;;;;43.90;17.13;;;;;;;-145.50;100.00;65435.88;4878531;29;20049;-49
2021/07/01 01:56:18;;;;;;;45.67;15.90;;;;;;;-145.50;100.00;65435.88;4882535;29;20132;-49
2021/07/01 01:58:46;;;;;;;39.47;14.50;;;;;;;-145.50;100.00;65435.88;4878157;29;20053;-49
2021/07/01 02:01:12;;;;;;;43.47;16.50;;;;;;;-145.50;100.00;65435.88;4878047;29;20092;-48
2021/07/01 02:03:39;;;;;;;40.03;14.60;;;;;;;-145.50;100.00;65435.88;4881363;29;20087;-48
2021/07/01 02:06:05;;;;;;;32.70;13.13;;;;;;;-145.50;100.00;65435.88;4887864;29;20557;-50
2021/07/01 02:08:33;;;;;;;31.35;13.38;;;;;;;-145.50;100.00;65435.88;4884739;29;20144;-48
2021/07/01 02:10:59;;;;;;;36.22;12.48;;;;;;;-145.50;100.00;65435.88;4886224;29;20139;-49
2021/07/01 02:13:26;;;;;;;31.20;11.50;;;;;;;-145.50;100.00;65435.88;4889309;29;20491;-49
2021/07/01 02:15:52;;;;;;;24.27;10.35;;;;;;;-145.50;100.00;65435.88;4880493;29;20464;-49
2021/07/01 02:18:19;;;;;;;33.28;11.80;;;;;;;-145.50;100.00;65435.88;4884612;29;20063;-49
2021/07/01 02:20:45;;;;;;;33.28;12.40;;;;;;;-145.50;100.00;65435.88;4879991;29;20159;-48
2021/07/01 02:23:12;;;;;;;27.70;11.45;;;;;;;-145.50;100.00;65435.88;4880526;29;20136;-49
2021/07/01 02:25:38;;;;;;;30.85;10.57;;;;;;;-145.50;100.00;65435.88;4883993;29;20537;-48
2021/07/01 02:28:05;;;;;;;29.15;10.45;;;;;;;-145.50;100.00;65435.88;4881540;29;20108;-49
2021/07/01 02:30:31;;;;;;;32.85;9.98;;;;;;;-145.50;100.00;65435.88;4881272;29;20052;-49
2021/07/01 02:32:58;;;;;;;24.23;9.95;;;;;;;-145.50;100.00;65435.88;4885696;29;20071;-50
2021/07/01 02:35:32;;;;;;;32.67;11.27;;;;;;;-145.50;100.00;65435.88;4885326;29;20052;-49
2021/07/01 02:37:59;;;;;;;33.03;10.63;;;;;;;-145.50;100.00;65435.88;4889956;29;20052;-51
2021/07/01 02:40:26;;;;;;;31.88;11.93;;;;;;;-145.50;100.00;65435.88;4889799;29;20552;-48
2021/07/01 02:42:52;;;;;;;43.83;12.95;;;;;;;-145.50;100.00;65435.88;4882116;29;20096;-51
2021/07/01 02:45:20;;;;;;;33.03;13.10;;;;;;;-145.50;100.00;65435.88;4874248;29;20088;-51
2021/07/01 02:47:46;;;;;;;33.78;11.98;;;;;;;-145.50;100.00;65435.88;4869878;29;20156;-49
2021/07/01 02:50:13;;;;;;;27.10;10.73;;;;;;;-145.50;100.00;65435.88;4887844;29;20052;-49
2021/07/01 02:52:39;;;;;;;33.58;10.68;;;;;;;-145.50;100.00;65435.88;4888412;29;20066;-50
2021/07/01 02:55:08;;;;;;;30.73;10.50;;;;;;;-145.50;100.00;65435.88;4884684;29;20135;-48
2021/07/01 02:57:36;;;;;;;31.02;11.88;;;;;;;-145.50;100.00;65435.88;4872391;29;20099;-49
2021/07/01 03:00:10;;;;;;;36.40;12.10;;;;;;;-145.50;100.00;65435.88;4867688;29;20057;-49
2021/07/01 03:02:36;;;;;;;34.88;12.40;;;;;;;-145.50;100.00;65435.88;4882164;29;20068;-48
2021/07/01 03:05:03;;;;;;;36.65;12.70;;;;;;;-145.50;100.00;65435.88;4898516;29;20817;-49
2021/07/01 03:07:30;;;;;;;40.55;12.10;;;;;;;-145.50;100.00;65435.88;4896982;29;20135;-49
2021/07/01 03:09:58;;;;;;;39.92;12.65;;;;;;;-145.50;100.00;65435.88;4883645;29;20104;-48
2021/07/01 03:12:25;;;;;;;33.25;11.02;;;;;;;-145.50;100.00;65435.88;4888912;29;20084;-49
2021/07/01 03:14:51;;;;;;;30.73;10.77;;;;;;;-145.50;100.00;65435.88;4878714;29;20056;-49
2021/07/01 03:17:18;;;;;;;37.65;12.32;;;;;;;-145.50;100.00;65435.88;4892715;29;20056;-50
2021/07/01 03:19:44;;;;;;;33.78;12.00;;;;;;;-145.50;100.00;65435.88;4897391;29;20149;-49
2021/07/01 03:22:12;;;;;;;40.22;12.13;;;;;;;-145.50;100.00;65435.88;4889742;29;20166;-50
2021/07/01 03:24:38;;;;;;;36.78;10.98;;;;;;;-145.50;100.00;65435.88;4885935;29;20577;-50
2021/07/01 03:27:05;;;;;;;32.60;11.00;;;;;;;-145.50;100.00;65435.88;4867161;29;20144;-49
2021/07/01 03:29:32;;;;;;;34.75;11.13;;;;;;;-145.50;100.00;65435.88;4879941;29;20155;-48
2021/07/01 03:31:58;;;;;;;40.75;11.60;;;;;;;-145.50;100.00;65435.88;4871311;29;20513;-49
2021/07/01 03:34:26;;;;;;;39.65;12.30;;;;;;;-145.50;100.00;65435.88;4879783;29;20059;-48
2021/07/01 03:36:52;;;;;;;28.00;11.27;;;;;;;-145.50;100.00;65435.88;4879766;29;20147;-49
2021/07/01 03:39:18;;;;;;;31.27;10.82;;;;;;;-145.50;100.00;65435.88;4851911;29;20075;-50
2021/07/01 03:41:45;;;;;;;39.15;12.50;;;;;;;-145.50;100.00;65435.88;4879003;29;20092;-48
2021/07/01 03:44:13;;;;;;;37.40;12.20;;;;;;;-145.50;100.00;65435.88;4870148;29;20140;-49
2021/07/01 03:46:41;;;;;;;39.72;11.50;;;;;;;-145.50;100.00;65435.88;4881795;29;20143;-49
2021/07/01 03:49:07;;;;;;;36.95;13.00;;;;;;;-145.50;100.00;65435.88;4875968;29;20417;-49
2021/07/01 03:51:34;;;;;;;39.92;13.10;;;;;;;-145.50;100.00;65435.88;4886530;29;20092;-48
2021/07/01 03:54:01;;;;;;;31.85;11.90;;;;;;;-145.50;100.00;65435.88;4872779;29;20084;-49
2021/07/01 03:56:40;;;;;;;36.15;11.38;;;;;;;-145.50;100.00;65435.88;4881756;29;20059;-48
2021/07/01 03:59:14;;;;;;;47.40;12.68;;;;;;;-145.50;100.00;65435.88;4872188;29;20576;-48
2021/07/01 04:01:41;;;;;;;39.33;12.02;;;;;;;-145.50;100.00;65435.88;4881380;29;20139;-48
2021/07/01 04:04:08;;;;;;;42.17;12.10;;;;;;;-145.50;100.00;65435.88;4889549;29;20125;-49
2021/07/01 04:06:34;;;;;;;34.53;11.27;;;;;;;-145.50;100.00;65435.88;4888097;29;20707;-49
2021/07/01 04:09:04;;;;;;;34.30;11.40;;;;;;;-145.50;100.00;65435.88;4888487;29;20106;-48
2021/07/01 04:11:31;;;;;;;46.72;11.82;;;;;;;-145.50;100.00;65435.88;4874547;29;20053;-49
2021/07/01 04:13:57;;;;;;;35.40;12.50;;;;;;;-145.50;100.00;65435.88;4882825;29;20064;-47
2021/07/01 04:16:24;;;;;;;43.65;13.95;;;;;;;-145.50;100.00;65435.88;4869318;29;20554;-48
2021/07/01 04:18:50;;;;;;;43.05;13.15;;;;;;;-145.50;100.00;65435.88;4881605;29;20160;-48
2021/07/01 04:21:17;;;;;;;44.95;13.50;;;;;;;-145.50;100.00;65435.88;4876215;29;20132;-48
2021/07/01 04:23:43;;;;;;;43.47;13.38;;;;;;;-145.50;100.00;65435.88;4896982;29;20114;-47
2021/07/01 04:26:10;;;;;;;46.05;13.70;;;;;;;-145.50;100.00;65435.88;4894693;29;20669;-48
2021/07/01 04:28:41;;;;;;;44.00;13.50;;;;;;;-145.50;100.00;65435.88;4895652;29;20112;-48
2021/07/01 04:31:08;;;;;;;39.65;13.50;;;;;;;-145.50;100.00;65435.88;4879600;29;20156;-49
2021/07/01 04:33:34;;;;;;;45.45;14.82;;;;;;;-145.50;100.00;65435.88;4904051;29;20051;-49
2021/07/01 04:36:01;;;;;;;40.28;13.88;;;;;;;-145.50;100.00;65435.88;4894893;29;20905;-50
2021/07/01 04:38:27;;;;;;;42.88;14.32;;;;;;;-145.50;100.00;65435.88;4911207;29;20055;-48
2021/07/01 04:40:55;;;;;;;31.35;12.93;;;;;;;-145.50;100.00;65435.88;4882291;29;20161;-47
2021/07/01 04:43:22;;;;;;;32.60;13.10;;;;;;;-145.50;100.00;65435.88;4883887;29;20143;-47
2021/07/01 04:45:49;;;;;;;37.95;13.48;;;;;;;-145.50;100.00;65435.88;4873798;29;20088;-50
2021/07/01 04:48:16;;;;;;;40.55;13.52;;;;;;;-145.50;100.00;65435.88;4902199;29;20056;-51
2021/07/01 04:50:43;;;;;;;30.38;13.00;;;;;;;-145.50;100.00;65435.88;4869239;29;20784;-49
2021/07/01 04:53:09;;;;;;;32.30;11.65;;;;;;;-145.50;100.00;65435.88;4874316;29;20143;-50
2021/07/01 04:55:35;;;;;;;32.85;13.25;;;;;;;-145.50;100.00;65435.88;4874410;29;20103;-50
2021/07/01 04:58:02;;;;;;;32.35;12.32;;;;;;;-145.50;100.00;65435.88;4867218;29;20152;-50
2021/07/01 05:00:29;;;;;;;31.95;12.23;;;;;;;-145.50;100.00;65435.88;4885986;29;20084;-48
2021/07/01 05:02:55;;;;;;;28.80;12.90;;;;;;;-145.50;100.00;65435.88;4875305;29;20160;-51
2021/07/01 05:05:22;;;;;;;38.72;13.60;;;;;;;-145.50;100.00;65435.88;4883872;29;20378;-50
2021/07/01 05:07:48;;;;;;;42.05;14.05;;;;;;;-145.50;100.00;65435.88;4895902;29;20056;-49
2021/07/01 05:10:15;;;;;;;39.60;14.52;;;;;;;-145.50;100.00;65435.88;4891198;29;20132;-49
2021/07/01 05:12:42;;;;;;;38.28;14.05;;;;;;;-145.50;100.00;65435.88;4874024;29;20147;-49
2021/07/01 05:15:09;;;;;;;41.22;13.52;;;;;;;-145.50;100.00;65435.88;4870282;29;20608;-49
2021/07/01 05:17:36;;;;;;;41.90;14.00;;;;;;;-145.50;100.00;65435.88;4877660;29;20080;-50
2021/07/01 05:20:06;;;;;;;45.92;14.38;;;;;;;-145.50;100.00;65435.88;4885204;29;20056;-49
2021/07/01 05:22:33;;;;;;;;;;;;;;;-145.50;100.00;65435.88;4888698;29;20057;-49
2021/07/01 05:24:59;;;;;;;41.83;14.32;;;;;;;-145.50;100.00;65435.88;4880433;29;20105;-50
2021/07/01 05:27:26;;;;;;;52.78;15.18;;;;;;;-145.50;100.00;65435.88;4867872;29;20472;-48
2021/07/01 05:29:52;;;;;;;33.65;13.55;;;;;;;-145.50;100.00;65435.88;4872214;29;20140;-48
2021/07/01 05:32:29;;;;;;;39.88;14.27;;;;;;;-145.50;100.00;65435.88;4874645;29;20452;-49
2021/07/01 05:34:56;;;;;;;40.47;13.70;;;;;;;-145.50;100.00;65435.88;4874782;29;20474;-48
2021/07/01 05:37:22;;;;;;;44.13;14.80;;;;;;;-145.50;100.00;65435.88;4868062;29;20060;-48
2021/07/01 05:39:49;;;;;;;42.00;13.23;;;;;;;-145.50;100.00;65435.88;4871853;29;20056;-49
2021/07/01 05:42:15;;;;;;;36.45;14.25;;;;;;;-145.50;100.00;65435.88;4862690;29;20156;-48
2021/07/01 05:44:42;;;;;;;37.20;13.23;;;;;;;-145.50;100.00;65435.88;4876716;29;20135;-48
2021/07/01 05:47:08;;;;;;;46.08;14.27;;;;;;;-145.50;100.00;65435.88;4869442;29;20100;-51
2021/07/01 05:49:35;;;;;;;45.55;14.45;;;;;;;-145.50;100.00;65435.88;4874558;29;20052;-49
2021/07/01 05:52:04;;;;;;;35.30;12.70;;;;;;;-145.50;100.00;65435.88;4882527;29;20044;-50
2021/07/01 05:54:36;;;;;;;42.08;13.63;;;;;;;-145.50;100.00;65435.88;4861868;29;20516;-48
2021/07/01 05:57:03;;;;;;;43.08;13.77;;;;;;;-145.50;100.00;65435.88;4877876;29;20159;-49
2021/07/01 05:59:30;;;;;;;61.55;15.07;;;;;;;-145.50;100.00;65435.88;4877282;29;20084;-50
2021/07/01 06:01:56;;;;;;;44.90;13.80;;;;;;;-145.50;100.00;65435.88;4880923;29;20136;-48
2021/07/01 06:04:23;;;;;;;36.70;13.18;;;;;;;-145.50;100.00;65435.88;4885826;29;20139;-49
2021/07/01 06:06:53;;;;;;;43.50;14.07;;;;;;;-145.50;100.00;65435.88;4886884;29;20539;-49
2021/07/01 06:09:22;;;;;;;31.13;12.55;;;;;;;-145.50;100.00;65435.88;4881704;29;20135;-48
2021/07/01 06:11:57;;;;;;;41.15;13.82;;;;;;;-145.50;100.00;65435.88;4889782;29;20096;-49
2021/07/01 06:14:24;;;;;;;49.80;14.77;;;;;;;-145.50;100.00;65435.88;4890669;29;20095;-49
2021/07/01 06:16:53;;;;;;;43.80;14.35;;;;;;;-145.50;100.00;65435.88;4885068;29;20509;-48
2021/07/01 06:19:21;;;;;;;37.50;13.63;;;;;;;-145.50;100.00;65435.88;4895514;29;20091;-47
2021/07/01 06:21:49;;;;;;;41.38;13.88;;;;;;;-145.50;100.00;65435.88;4875827;29;20084;-47
2021/07/01 06:24:16;;;;;;;37.80;13.88;;;;;;;-145.50;100.00;65435.88;4876207;29;20135;-46
2021/07/01 06:26:44;;;;;;;37.55;13.82;;;;;;;-145.50;100.00;65435.88;4863419;29;20143;-48
2021/07/01 06:29:12;;;;;;;37.80;12.95;;;;;;;-145.50;100.00;65435.88;4889328;29;20459;-48
2021/07/01 06:31:40;;;;;;;34.08;14.23;;;;;;;-145.50;100.00;65435.88;4887071;29;20745;-48
2021/07/01 06:34:07;;;;;;;41.07;13.10;;;;;;;-145.50;100.00;65435.88;4881123;29;20060;-47
2021/07/01 06:36:37;;;;;;;41.70;14.30;;;;;;;-145.50;100.00;65435.88;4884079;29;20147;-48
2021/07/01 06:39:05;;;;;;;46.58;15.00;;;;;;;-145.50;100.00;65435.88;4877839;29;20496;-47
2021/07/01 06:41:35;;;;;;;42.50;13.85;;;;;;;-145.50;100.00;65435.88;4888286;29;20489;-47
2021/07/01 06:44:02;;;;;;;45.67;14.90;;;;;;;-145.50;100.00;65435.88;4884304;29;20058;-47
2021/07/01 06:46:32;;;;;;;43.20;14.23;;;;;;;-145.50;100.00;65435.88;4883912;29;20191;-48
2021/07/01 06:49:01;;;;;;;41.92;13.80;;;;;;;-145.50;100.00;65435.88;4880366;29;20071;-49
2021/07/01 06:51:36;;;;;;;40.58;13.30;;;;;;;-145.50;100.00;65435.88;4873111;29;20146;-47
2021/07/01 06:54:03;;;;;;;39.13;14.23;;;;;;;-145.50;100.00;65435.88;4885875;29;20056;-47
2021/07/01 06:56:38;;;;;;;41.38;14.30;;;;;;;-145.50;100.00;65435.88;4891785;29;20079;-49
2021/07/01 06:59:12;;;;;;;35.92;13.23;;;;;;;-145.50;100.00;65435.88;4893134;29;20053;-48
2021/07/01 07:01:40;;;;;;;40.05;13.73;;;;;;;-145.50;100.00;65435.88;4873319;29;20585;-49
2021/07/01 07:04:16;;;;;;;47.63;14.23;;;;;;;-145.50;100.00;65435.88;4887098;29;20489;-47
2021/07/01 07:06:44;;;;;;;49.38;15.32;;;;;;;-145.50;100.00;65435.88;4880256;29;20115;-49
2021/07/01 07:09:13;;;;;;;46.10;14.63;;;;;;;-145.50;100.00;65435.88;4889348;29;20146;-47
2021/07/01 07:11:40;;;;;;;;;;;;;;;-145.50;100.00;65435.88;4882777;29;20181;-48
2021/07/01 07:14:07;;;;;;;39.45;13.88;;;;;;;-145.50;100.00;65435.88;4889656;29;19967;-48
2021/07/01 07:16:38;;;;;;;50.75;14.85;;;;;;;-145.50;100.00;65435.88;4872111;29;20823;-50
2021/07/01 07:19:07;;;;;;;47.95;15.27;;;;;;;-145.50;100.00;65435.88;4889106;29;20060;-48
2021/07/01 07:21:38;;;;;;;49.50;15.70;;;;;;;-145.50;100.00;65435.88;4908020;29;20075;-49
2021/07/01 07:24:07;;;;;;;45.28;14.18;;;;;;;-145.50;100.00;65435.88;4888798;29;20147;-47
2021/07/01 07:26:34;;;;;;;40.20;14.50;;;;;;;-145.50;100.00;65435.88;4883076;29;20453;-49
2021/07/01 07:29:17;;;;;;;38.38;13.93;;;;;;;-145.50;100.00;65435.88;4896429;29;20122;-48
2021/07/01 07:31:45;;;;;;;41.13;16.08;;;;;;;-145.50;100.00;65435.88;4891628;29;20438;-48
2021/07/01 07:34:12;;;;;;;44.55;14.80;;;;;;;-145.50;100.00;65435.88;4889816;29;20140;-48
2021/07/01 07:36:38;;;;;;;48.42;15.23;;;;;;;-145.50;100.00;65435.88;4894121;29;20905;-49
2021/07/01 07:39:06;;;;;;;51.25;15.35;;;;;;;-145.50;100.00;65435.88;4881699;29;20349;-49
2021/07/01 07:41:33;;;;;;;43.08;16.70;;;;;;;-145.50;100.00;65435.88;4870658;29;20140;-47
2021/07/01 07:44:00;;;;;;;53.80;14.10;;;;;;;-145.50;100.00;65435.88;4865947;29;20095;-48
2021/07/01 07:46:28;;;;;;;43.78;13.63;;;;;;;-145.50;100.00;65435.88;4862907;29;20577;-48
2021/07/01 07:48:54;;;;;;;;;;;;;;;-145.50;100.00;65435.88;4882155;29;20192;-49
2021/07/01 07:51:25;;;;;;;49.80;14.77;;;;;;;-145.50;100.00;65435.88;4878357;29;20340;-49
2021/07/01 07:53:55;;;;;;;36.85;13.70;;;;;;;-145.50;100.00;65435.88;4895593;29;20143;-48
2021/07/01 07:56:36;;;;;;;43.85;15.13;;;;;;;-145.50;100.00;65435.88;4875394;29;20061;-47
2021/07/01 07:59:05;;;;;;;45.03;14.85;;;;;;;-145.50;100.00;65435.88;4864128;29;20060;-48
2021/07/01 08:01:33;;;;;;;41.38;15.30;;;;;;;-145.50;100.00;65435.88;4873406;29;20510;-48
2021/07/01 08:04:03;;;;;;;54.75;15.10;;;;;;;-145.50;100.00;65435.88;4886386;29;20052;-49
2021/07/01 08:06:30;;;;;;;44.13;14.88;;;;;;;-145.50;100.00;65435.88;4890114;29;20053;-49
2021/07/01 08:08:57;;;;;;;38.15;14.70;;;;;;;-145.50;100.00;65435.88;4866635;29;20139;-49
2021/07/01 08:11:24;;;;;;;56.70;15.63;;;;;;;-145.50;100.00;65435.88;4885390;29;20501;-48
2021/07/01 08:13:59;;;;;;;54.03;15.15;;;;;;;-145.50;100.00;65435.88;4879385;29;20875;-47
2021/07/01 08:16:26;;;;;;;41.83;15.23;;;;;;;-145.50;100.00;65435.88;4876679;29;20528;-47
2021/07/01 08:18:53;;;;;;;52.00;14.40;;;;;;;-145.50;100.00;65435.88;4875202;29;20067;-49
2021/07/01 08:21:19;;;;;;;67.57;19.73;;;;;;;-145.50;100.00;65435.88;4889720;29;20091;-50
2021/07/01 08:23:46;;;;;;;49.55;14.45;;;;;;;-145.50;100.00;65435.88;4888906;29;20604;-50
2021/07/01 08:26:14;;;;;;;59.35;16.23;;;;;;;-145.50;100.00;65435.88;4877351;29;20136;-47
2021/07/01 08:28:40;;;;;;;48.17;15.55;;;;;;;-145.50;100.00;65435.88;4887587;29;20096;-49
2021/07/01 08:31:18;;;;;;;47.67;14.73;;;;;;;-145.50;100.00;65435.88;4881527;29;20140;-47
2021/07/01 08:33:50;;;;;;;49.08;15.25;;;;;;;-145.50;100.00;65435.88;4906052;29;20409;-47
2021/07/01 08:36:20;;;;;;;56.30;16.05;;;;;;;-145.50;100.00;65435.88;4875496;29;20095;-50
2021/07/01 08:38:51;;;;;;;52.38;17.10;;;;;;;-145.50;100.00;65435.88;4894918;29;20095;-47
2021/07/01 08:41:19;;;;;;;49.83;15.27;;;;;;;-145.50;100.00;65435.88;4890771;29;20134;-48
2021/07/01 08:43:52;;;;;;;49.45;16.20;;;;;;;-145.50;100.00;65435.88;4882910;29;20088;-48
2021/07/01 08:46:27;;;;;;;49.33;14.75;;;;;;;-145.50;100.00;65435.88;4891422;29;20152;-48
2021/07/01 08:49:08;;;;;;;46.50;17.48;;;;;;;-145.50;100.00;65435.88;4882624;29;20061;-49
2021/07/01 08:51:44;;;;;;;39.22;15.13;;;;;;;-145.50;100.00;65435.88;4883751;29;20067;-47
2021/07/01 08:54:23;;;;;;;50.30;15.45;;;;;;;-145.50;100.00;65435.88;4869692;29;20112;-50
2021/07/01 08:56:52;;;;;;;57.13;16.13;;;;;;;-145.50;100.00;65435.88;4877274;29;20135;-48
2021/07/01 08:59:19;;;;;;;;;;;;;;;-145.50;100.00;65435.88;4889893;29;20143;-47
2021/07/01 09:01:55;;;;;;;53.40;18.13;;;;;;;-145.50;100.00;65435.88;4886770;29;19927;-48
2021/07/01 09:04:25;;;;;;;55.28;16.08;;;;;;;-145.50;100.00;65435.88;4890525;29;20044;-48
2021/07/01 09:07:00;;;;;;;54.90;18.45;;;;;;;-145.50;100.00;65435.88;4885925;29;20147;-49
2021/07/01 09:09:31;;;;;;;58.88;17.50;;;;;;;-145.50;100.00;65435.88;4886013;29;20131;-48
2021/07/01 09:12:01;;;;;;;49.97;15.70;;;;;;;-145.50;100.00;65435.88;4889783;29;20493;-48
2021/07/01 09:14:29;;;;;;;49.90;15.05;;;;;;;-145.50;100.00;65435.88;4886448;29;20163;-49
2021/07/01 09:16:59;;;;;;;53.75;17.45;;;;;;;-145.50;100.00;65435.88;4881100;29;20056;-51
2021/07/01 09:19:26;;;;;;;73.00;19.52;;;;;;;-145.50;100.00;65435.88;4896010;29;20155;-49
2021/07/01 09:21:54;;;;;;;46.55;16.50;;;;;;;-145.50;100.00;65435.88;4890921;29;20143;-51
2021/07/01 09:24:25;;;;;;;45.95;16.13;;;;;;;-145.50;100.00;65435.88;4883187;29;20104;-50
2021/07/01 09:26:56;;;;;;;74.72;18.55;;;;;;;-145.50;100.00;65435.88;4870546;29;20152;-48
2021/07/01 09:29:25;;;;;;;72.88;18.33;;;;;;;-145.50;100.00;65435.88;4886045;29;20131;-50
2021/07/01 09:31:54;;;;;;;53.17;17.25;;;;;;;-145.50;100.00;65435.88;4875115;29;20969;-48
2021/07/01 09:34:21;;;;;;;56.60;18.10;;;;;;;-145.50;100.00;65435.88;4892820;29;20155;-47
2021/07/01 09:36:47;;;;;;;71.53;18.15;;;;;;;-145.50;100.00;65435.88;4878758;29;20111;-48
2021/07/01 09:39:16;;;;;;;73.90;20.02;;;;;;;-145.50;100.00;65435.88;4898382;29;20087;-46
2021/07/01 09:41:43;;;;;;;76.65;19.10;;;;;;;-145.50;100.00;65435.88;4892644;29;20583;-46
2021/07/01 09:44:10;;;;;;;73.15;18.98;;;;;;;-145.50;100.00;65435.88;4885142;29;20159;-48
2021/07/01 09:46:37;;;;;;;57.78;17.45;;;;;;;-145.50;100.00;65435.88;4889076;29;20106;-47
2021/07/01 09:49:29;;;;;;;68.25;18.00;;;;;;;-145.50;100.00;65435.88;4881862;29;20815;-49
2021/07/01 09:51:56;;;;;;;71.68;18.08;;;;;;;-145.50;100.00;65435.88;4871106;29;20064;-47
2021/07/01 09:54:24;;;;;;;54.70;16.25;;;;;;;-145.50;100.00;65435.88;4867026;29;20088;-47
2021/07/01 09:56:55;;;;;;;64.22;19.02;;;;;;;-145.50;100.00;65435.88;4905636;29;20135;-48
2021/07/01 09:59:41;;;;;;;64.72;18.48;;;;;;;-145.50;100.00;65435.88;4892757;29;20517;-48
2021/07/01 10:02:18;;;;;;;67.93;17.77;;;;;;;-145.50;100.00;65435.88;4877481;29;20048;-48
2021/07/01 10:04:45;;;;;;;57.17;16.02;;;;;;;-145.50;100.00;65435.88;4883435;29;20091;-49
2021/07/01 10:07:18;;;;;;;62.40;16.60;;;;;;;-145.50;100.00;65435.88;4891355;29;20088;-48
2021/07/01 10:09:46;;;;;;;54.08;16.45;;;;;;;-145.50;100.00;65435.88;4896055;29;20170;-48
2021/07/01 10:12:18;;;;;;;66.15;17.70;;;;;;;-145.50;100.00;65435.88;4882635;29;20152;-49
2021/07/01 10:14:46;;;;;;;58.72;17.65;;;;;;;-145.50;100.00;65435.88;4874976;29;20092;-49
2021/07/01 10:17:19;;;;;;;48.70;16.25;;;;;;;-145.50;100.00;65435.88;4878368;29;20508;-48
2021/07/01 10:19:47;;;;;;;60.42;18.10;;;;;;;-145.50;100.00;65435.88;4895871;29;20430;-49
2021/07/01 10:22:18;;;;;;;53.17;17.40;;;;;;;-145.50;100.00;65435.88;4890751;29;20095;-49
2021/07/01 10:24:55;;;;;;;61.95;17.60;;;;;;;-145.50;100.00;65435.88;4887908;29;20712;-51
2021/07/01 10:27:34;;;;;;;53.97;17.13;;;;;;;-145.50;100.00;65435.88;4875236;29;20049;-48
2021/07/01 10:30:13;;;;;;;56.65;17.73;;;;;;;-145.50;100.00;65435.88;4874524;29;20057;-48
2021/07/01 10:32:45;;;;;;;68.88;19.02;;;;;;;-145.50;100.00;65435.88;4877302;29;20143;-49
2021/07/01 10:35:29;;;;;;;62.25;18.50;;;;;;;-145.50;100.00;65435.88;4890246;29;20120;-47
2021/07/01 10:37:57;;;;;;;56.58;17.33;;;;;;;-145.50;100.00;65435.88;4889822;29;20155;-49
2021/07/01 10:40:23;;;;;;;66.18;17.55;;;;;;;-145.50;100.00;65435.88;4885666;29;20057;-49
2021/07/01 10:42:51;;;;;;;64.68;18.08;;;;;;;-145.50;100.00;65435.88;4882472;29;20163;-48
2021/07/01 10:45:18;;;;;;;54.60;17.60;;;;;;;-145.50;100.00;65435.88;4873304;29;20541;-50
2021/07/01 10:47:46;;;;;;;62.50;17.48;;;;;;;-145.50;100.00;65435.88;4878265;29;20089;-51
2021/07/01 10:50:19;;;;;;;65.75;18.02;;;;;;;-145.50;100.00;65435.88;4879095;29;20143;-50
2021/07/01 10:52:46;;;;;;;50.42;16.92;;;;;;;-145.50;100.00;65435.88;4882984;29;20132;-47
2021/07/01 10:55:14;;;;;;;61.58;17.92;;;;;;;-145.50;100.00;65435.88;4870680;29;20084;-47
2021/07/01 10:58:01;;;;;;;65.93;18.90;;;;;;;-145.50;100.00;65435.88;4885883;29;20072;-49
2021/07/01 11:00:40;;;;;;;46.25;16.83;;;;;;;-145.50;100.00;65435.88;4898090;29;20072;-51